createdAt,value
2019-05-06T00:01:53.943Z,4.83
2019-05-06T00:04:24.631Z,5.53
2019-05-06T00:06:54.828Z,4.80
2019-05-06T00:09:24.010Z,5.37
2019-05-06T00:11:54.368Z,5.10
2019-05-06T00:14:23.555Z,5.23
2019-05-06T00:16:54.567Z,5.10
2019-05-06T00:19:24.504Z,5.13
2019-05-06T00:21:54.093Z,5.30
2019-05-06T00:24:24.355Z,5.60
2019-05-06T00:26:57.325Z,5.37
2019-05-06T00:29:26.076Z,5.07
2019-05-06T00:31:54.266Z,4.93
2019-05-06T00:34:24.462Z,5.20
2019-05-06T00:36:54.332Z,5.43
2019-05-06T00:39:29.370Z,5.50
2019-05-06T00:42:03.884Z,5.37
2019-05-06T00:44:32.174Z,5.47
2019-05-06T00:47:00.678Z,5.77
2019-05-06T00:49:28.882Z,6.00
2019-05-06T00:51:57.082Z,5.03
2019-05-06T00:54:26.910Z,5.70
2019-05-06T00:56:55.422Z,5.70
2019-05-06T00:59:23.955Z,5.70
2019-05-06T01:01:53.863Z,5.33
2019-05-06T01:04:24.378Z,5.57
2019-05-06T01:06:54.290Z,5.67
2019-05-06T01:09:24.064Z,5.77
2019-05-06T01:11:54.378Z,5.20
2019-05-06T01:14:24.210Z,5.93
2019-05-06T01:16:54.603Z,5.20
2019-05-06T01:19:23.573Z,6.07
2019-05-06T01:21:54.009Z,6.20
2019-05-06T01:24:23.808Z,5.50
2019-05-06T01:26:53.645Z,6.40
2019-05-06T01:29:24.030Z,5.97
2019-05-06T01:31:54.245Z,5.90
2019-05-06T01:34:24.328Z,6.20
2019-05-06T01:36:54.396Z,6.70
2019-05-06T01:39:27.234Z,6.73
2019-05-06T01:42:06.562Z,6.03
2019-05-06T01:44:34.790Z,6.27
2019-05-06T01:47:03.783Z,6.73
2019-05-06T01:49:33.858Z,6.57
2019-05-06T01:52:04.080Z,6.00
2019-05-06T01:54:34.365Z,6.70
2019-05-06T01:57:04.417Z,7.03
2019-05-06T01:59:34.075Z,7.10
2019-05-06T02:02:04.326Z,6.50
2019-05-06T02:04:33.731Z,6.83
2019-05-06T02:07:03.814Z,6.60
2019-05-06T02:09:34.228Z,6.47
2019-05-06T02:12:04.607Z,6.60
2019-05-06T02:14:34.133Z,6.87
2019-05-06T02:17:03.665Z,6.23
2019-05-06T02:19:34.538Z,6.30
2019-05-06T02:22:04.374Z,6.53
2019-05-06T02:24:34.270Z,7.03
2019-05-06T02:27:04.358Z,6.50
2019-05-06T02:29:34.188Z,6.97
2019-05-06T02:32:24.463Z,6.53
2019-05-06T02:34:45.790Z,6.73
2019-05-06T02:37:15.734Z,6.83
2019-05-06T02:39:44.130Z,6.70
2019-05-06T02:42:13.232Z,6.13
2019-05-06T02:44:44.215Z,7.00
2019-05-06T02:47:34.261Z,6.57
2019-05-06T02:50:13.259Z,6.37
2019-05-06T02:52:44.022Z,7.83
2019-05-06T02:55:12.945Z,6.50
2019-05-06T02:57:43.879Z,7.00
2019-05-06T03:00:18.946Z,7.47
2019-05-06T03:02:48.393Z,6.57
2019-05-06T03:05:16.910Z,6.10
2019-05-06T03:07:45.100Z,7.10
2019-05-06T03:10:15.029Z,7.33
2019-05-06T03:12:43.587Z,6.50
2019-05-06T03:15:16.252Z,6.83
2019-05-06T03:17:43.548Z,7.40
2019-05-06T03:20:17.035Z,6.63
2019-05-06T03:22:54.377Z,7.27
2019-05-06T03:25:24.506Z,7.00
2019-05-06T03:27:53.334Z,7.63
2019-05-06T03:30:25.536Z,7.27
2019-05-06T03:33:23.306Z,6.53
2019-05-06T03:35:40.513Z,7.23
2019-05-06T03:37:53.259Z,6.70
2019-05-06T03:40:23.099Z,7.40
2019-05-06T03:42:53.924Z,6.87
2019-05-06T03:45:25.472Z,7.83
2019-05-06T03:47:55.317Z,7.33
2019-05-06T03:50:24.199Z,6.57
2019-05-06T03:52:56.037Z,7.57
2019-05-06T03:55:23.585Z,7.60
2019-05-06T03:57:55.264Z,7.87
2019-05-06T04:00:23.862Z,7.43
2019-05-06T04:02:53.678Z,7.67
2019-05-06T04:05:23.860Z,8.27
2019-05-06T04:07:53.280Z,8.23
2019-05-06T04:10:22.882Z,8.13
2019-05-06T04:12:53.569Z,9.00
2019-05-06T04:15:26.723Z,9.40
2019-05-06T04:17:54.735Z,8.80
2019-05-06T04:20:34.386Z,9.87
2019-05-06T04:23:07.507Z,9.33
2019-05-06T04:25:53.542Z,8.73
2019-05-06T04:28:23.951Z,9.73
2019-05-06T04:30:54.840Z,9.53
2019-05-06T04:33:23.662Z,8.77
2019-05-06T04:35:54.044Z,9.33
2019-05-06T04:38:23.549Z,9.33
2019-05-06T04:40:53.957Z,9.60
2019-05-06T04:43:26.279Z,9.67
2019-05-06T04:45:53.946Z,9.37
2019-05-06T04:48:23.809Z,8.80
2019-05-06T04:50:53.793Z,9.17
2019-05-06T04:53:26.437Z,9.60
2019-05-06T04:55:53.886Z,9.00
2019-05-06T04:58:23.374Z,9.07
2019-05-06T05:00:53.156Z,9.10
2019-05-06T05:03:22.799Z,8.80
2019-05-06T05:05:52.959Z,9.13
2019-05-06T05:08:23.108Z,8.57
2019-05-06T05:10:59.215Z,9.50
2019-05-06T05:13:47.664Z,9.00
2019-05-06T05:16:26.595Z,9.33
2019-05-06T05:18:56.500Z,8.10
2019-05-06T05:21:24.718Z,7.83
2019-05-06T05:23:52.907Z,9.03
2019-05-06T05:26:22.507Z,7.63
2019-05-06T05:28:53.102Z,8.43
2019-05-06T05:31:23.022Z,8.23
2019-05-06T05:33:52.594Z,7.87
2019-05-06T05:36:23.068Z,8.00
2019-05-06T05:38:52.241Z,8.43
2019-05-06T05:41:23.197Z,9.60
2019-05-06T05:43:53.006Z,8.50
2019-05-06T05:46:21.855Z,8.70
2019-05-06T05:48:52.163Z,8.70
2019-05-06T05:51:22.193Z,8.40
2019-05-06T05:53:52.282Z,8.57
2019-05-06T05:56:23.805Z,7.90
2019-05-06T05:58:53.229Z,8.37
2019-05-06T06:01:23.234Z,7.83
2019-05-06T06:03:52.775Z,7.90
2019-05-06T06:06:22.169Z,8.07
2019-05-06T06:08:52.365Z,8.00
2019-05-06T06:11:25.235Z,7.83
2019-05-06T06:13:54.590Z,7.33
2019-05-06T06:16:24.448Z,8.80
2019-05-06T06:19:06.489Z,8.00
2019-05-06T06:21:36.321Z,8.33
2019-05-06T06:24:18.472Z,7.97
2019-05-06T06:26:46.693Z,8.23
2019-05-06T06:29:14.907Z,8.80
2019-05-06T06:31:53.711Z,8.10
2019-05-06T06:34:29.604Z,7.90
2019-05-06T06:36:59.779Z,7.97
2019-05-06T06:39:29.640Z,7.70
2019-05-06T06:41:57.992Z,7.77
2019-05-06T06:44:27.991Z,7.63
2019-05-06T06:46:56.201Z,7.30
2019-05-06T06:49:24.391Z,7.77
2019-05-06T06:51:53.224Z,7.20
2019-05-06T06:54:22.834Z,7.20
2019-05-06T06:57:05.610Z,7.50
2019-05-06T06:59:24.880Z,7.20
2019-05-06T07:02:04.450Z,7.37
2019-05-06T07:04:46.503Z,6.93
2019-05-06T07:07:16.766Z,6.97
2019-05-06T07:09:45.014Z,7.43
2019-05-06T07:12:13.398Z,6.90
2019-05-06T07:14:42.831Z,7.83
2019-05-06T07:17:13.376Z,7.70
2019-05-06T07:19:43.094Z,7.17
2019-05-06T07:22:12.757Z,6.90
2019-05-06T07:24:43.103Z,6.53
2019-05-06T07:27:22.814Z,7.43
2019-05-06T07:29:52.237Z,6.93
2019-05-06T07:32:23.052Z,6.73
2019-05-06T07:34:53.142Z,6.40
2019-05-06T07:37:22.105Z,6.63
2019-05-06T07:39:52.944Z,6.53
2019-05-06T07:42:22.851Z,6.30
2019-05-06T07:44:53.081Z,6.07
2019-05-06T07:47:34.855Z,6.27
2019-05-06T07:50:03.545Z,6.60
2019-05-06T07:52:32.571Z,6.13
2019-05-06T07:55:02.622Z,5.93
2019-05-06T07:57:32.908Z,6.60
2019-05-06T08:00:03.385Z,5.87
2019-05-06T08:02:32.077Z,5.83
2019-05-06T08:05:02.431Z,5.10
2019-05-06T08:07:30.352Z,5.47
2019-05-06T08:09:58.639Z,5.90
2019-05-06T08:12:26.819Z,5.63
2019-05-06T08:14:55.120Z,5.93
2019-05-06T08:17:27.959Z,6.37
2019-05-06T08:19:56.184Z,6.13
2019-05-06T08:22:33.378Z,6.37
2019-05-06T08:25:03.498Z,6.00
2019-05-06T08:27:32.974Z,5.33
2019-05-06T08:30:02.421Z,5.40
2019-05-06T08:32:32.135Z,5.73
2019-05-06T08:35:00.524Z,5.60
2019-05-06T08:37:32.078Z,6.30
2019-05-06T08:40:03.154Z,6.20
2019-05-06T08:42:32.783Z,5.97
2019-05-06T08:45:02.192Z,5.90
2019-05-06T08:47:32.848Z,6.73
2019-05-06T08:50:14.202Z,6.63
2019-05-06T08:53:00.055Z,6.90
2019-05-06T08:55:42.066Z,7.60
2019-05-06T08:58:10.833Z,6.53
2019-05-06T09:00:43.355Z,5.60
2019-05-06T09:03:14.232Z,6.60
2019-05-06T09:05:43.450Z,6.00
2019-05-06T09:08:13.729Z,6.63
2019-05-06T09:10:42.920Z,5.43
2019-05-06T09:13:12.306Z,5.47
2019-05-06T09:15:42.747Z,6.07
2019-05-06T09:18:12.443Z,5.73
2019-05-06T09:20:43.022Z,6.20
2019-05-06T09:23:12.416Z,6.07
2019-05-06T09:25:42.493Z,5.83
2019-05-06T09:28:14.833Z,5.47
2019-05-06T09:30:44.686Z,5.33
2019-05-06T09:33:14.515Z,5.17
2019-05-06T09:35:42.735Z,4.90
2019-05-06T09:38:12.725Z,4.30
2019-05-06T09:40:43.082Z,4.53
2019-05-06T09:43:13.233Z,5.10
2019-05-06T09:45:42.471Z,4.13
2019-05-06T09:48:15.332Z,4.83
2019-05-06T09:50:46.441Z,4.23
2019-05-06T09:53:16.618Z,4.33
2019-05-06T09:56:04.542Z,4.17
2019-05-06T09:58:35.030Z,4.30
2019-05-06T10:01:04.164Z,4.00
2019-05-06T10:03:32.747Z,3.90
2019-05-06T10:06:02.687Z,4.20
2019-05-06T10:08:32.284Z,3.47
2019-05-06T10:11:02.911Z,4.70
2019-05-06T10:13:32.776Z,4.37
2019-05-06T10:16:02.728Z,4.40
2019-05-06T10:18:30.498Z,4.97
2019-05-06T10:20:58.703Z,4.67
2019-05-06T10:23:26.906Z,5.20
2019-05-06T10:25:55.115Z,5.13
2019-05-06T10:28:42.791Z,5.13
2019-05-06T10:31:12.867Z,5.00
2019-05-06T10:33:59.384Z,4.90
2019-05-06T10:36:32.598Z,4.90
2019-05-06T10:39:04.835Z,5.10
2019-05-06T10:41:36.477Z,5.10
2019-05-06T10:44:16.701Z,5.17
2019-05-06T10:46:44.895Z,5.40
2019-05-06T10:49:13.254Z,5.10
2019-05-06T10:51:49.648Z,5.17
2019-05-06T10:54:17.856Z,4.93
2019-05-06T10:56:53.815Z,5.33
2019-05-06T10:59:19.360Z,5.60
2019-05-06T11:01:49.205Z,5.13
2019-05-06T11:04:17.414Z,5.23
2019-05-06T11:06:45.657Z,5.33
2019-05-06T11:09:14.238Z,5.13
2019-05-06T11:11:42.873Z,4.83
2019-05-06T11:14:12.690Z,5.60
2019-05-06T11:16:41.321Z,5.97
2019-05-06T11:19:13.351Z,6.63
2019-05-06T11:21:42.180Z,5.60
2019-05-06T11:24:09.504Z,5.30
2019-05-06T11:26:37.715Z,6.17
2019-05-06T11:29:12.350Z,5.67
2019-05-06T11:31:47.559Z,5.17
2019-05-06T11:34:23.405Z,6.67
2019-05-06T11:36:53.263Z,6.50
2019-05-06T11:39:23.253Z,6.63
2019-05-06T11:42:06.334Z,6.47
2019-05-06T11:44:23.622Z,6.60
2019-05-06T11:46:52.316Z,6.63
2019-05-06T11:49:23.291Z,6.57
2019-05-06T11:51:50.988Z,6.10
2019-05-06T11:54:20.737Z,6.47
2019-05-06T11:56:52.604Z,6.83
2019-05-06T11:59:22.684Z,6.40
2019-05-06T12:01:53.412Z,6.53
2019-05-06T12:04:22.825Z,6.33
2019-05-06T12:06:54.052Z,6.70
2019-05-06T12:09:22.231Z,6.77
2019-05-06T12:11:52.834Z,7.00
2019-05-06T12:14:22.514Z,6.40
2019-05-06T12:16:54.847Z,6.80
2019-05-06T12:19:22.502Z,6.17
2019-05-06T12:21:51.008Z,7.00
2019-05-06T12:24:19.532Z,6.60
2019-05-06T12:26:47.731Z,6.87
2019-05-06T12:29:16.288Z,6.73
2019-05-06T12:31:46.403Z,6.97
2019-05-06T12:34:14.811Z,6.40
2019-05-06T12:36:43.176Z,7.00
2019-05-06T12:39:18.678Z,6.40
2019-05-06T12:42:03.097Z,6.50
2019-05-06T12:44:32.952Z,5.90
2019-05-06T12:47:21.336Z,6.63
2019-05-06T12:49:49.802Z,6.00
2019-05-06T12:52:17.992Z,5.97
2019-05-06T12:54:46.553Z,6.50
2019-05-06T12:57:14.748Z,5.93
2019-05-06T12:59:42.964Z,6.73
2019-05-06T13:02:13.178Z,5.70
2019-05-06T13:04:51.234Z,6.10
2019-05-06T13:07:13.094Z,5.93
2019-05-06T13:09:44.806Z,6.93
2019-05-06T13:12:13.192Z,6.40
2019-05-06T13:14:43.146Z,5.47
2019-05-06T13:17:13.176Z,5.90
2019-05-06T13:19:42.872Z,5.67
2019-05-06T13:22:13.466Z,5.37
2019-05-06T13:24:41.846Z,5.33
2019-05-06T13:27:12.613Z,6.13
2019-05-06T13:29:42.755Z,5.53
2019-05-06T13:32:12.881Z,5.43
2019-05-06T13:34:54.098Z,5.50
2019-05-06T13:37:22.904Z,5.27
2019-05-06T13:39:52.739Z,6.20
2019-05-06T13:42:22.611Z,5.90
2019-05-06T13:44:49.736Z,5.70
2019-05-06T13:47:18.626Z,6.10
2019-05-06T13:49:47.818Z,5.43
2019-05-06T13:52:15.304Z,5.40
2019-05-06T13:54:42.591Z,5.57
2019-05-06T13:57:12.227Z,6.20
2019-05-06T13:59:38.879Z,5.57
2019-05-06T14:02:16.177Z,5.97
2019-05-06T14:04:44.366Z,5.73
2019-05-06T14:07:13.040Z,5.07
2019-05-06T14:09:43.300Z,5.37
2019-05-06T14:12:09.297Z,6.00
2019-05-06T14:14:36.530Z,5.07
2019-05-06T14:17:04.072Z,5.67
2019-05-06T14:19:33.245Z,5.20
2019-05-06T14:22:03.042Z,5.27
2019-05-06T14:24:32.775Z,5.43
2019-05-06T14:27:02.534Z,5.67
2019-05-06T14:29:32.909Z,5.93
2019-05-06T14:32:00.491Z,5.53
2019-05-06T14:34:27.713Z,6.00
2019-05-06T14:36:54.929Z,6.20
2019-05-06T14:39:24.056Z,7.00
2019-05-06T14:41:56.252Z,5.67
2019-05-06T14:44:23.524Z,6.20
2019-05-06T14:46:58.643Z,6.03
2019-05-06T14:49:25.868Z,6.20
2019-05-06T14:51:53.804Z,5.97
2019-05-06T14:54:22.127Z,5.43
2019-05-06T14:56:53.943Z,7.37
2019-05-06T14:59:23.444Z,5.40
2019-05-06T15:01:53.419Z,5.07
2019-05-06T15:04:19.389Z,5.33
2019-05-06T15:06:46.631Z,6.03
2019-05-06T15:09:13.919Z,5.07
2019-05-06T15:11:43.164Z,4.90
2019-05-06T15:14:10.125Z,5.43
2019-05-06T15:16:37.633Z,4.80
2019-05-06T15:19:05.308Z,6.70
2019-05-06T15:21:38.093Z,5.70
2019-05-06T15:24:02.664Z,5.60
2019-05-06T15:26:30.527Z,5.93
2019-05-06T15:28:58.083Z,5.60
2019-05-06T15:31:26.977Z,5.97
2019-05-06T15:34:02.584Z,5.37
2019-05-06T15:36:38.068Z,6.40
2019-05-06T15:39:06.015Z,5.30
2019-05-06T15:41:33.262Z,6.03
2019-05-06T15:44:02.839Z,5.73
2019-05-06T15:46:32.160Z,5.10
2019-05-06T15:48:59.033Z,5.30
2019-05-06T15:51:35.106Z,6.90
2019-05-06T15:54:04.332Z,5.63
2019-05-06T15:56:33.263Z,5.20
2019-05-06T15:59:02.531Z,7.07
2019-05-06T16:01:33.209Z,9.13
2019-05-06T16:03:58.791Z,7.70
2019-05-06T16:06:26.597Z,5.87
2019-05-06T16:08:53.911Z,5.47
2019-05-06T16:11:22.298Z,5.37
2019-05-06T16:13:49.715Z,5.07
2019-05-06T16:16:17.229Z,5.00
2019-05-06T16:18:44.430Z,5.10
2019-05-06T16:21:11.655Z,4.60
2019-05-06T16:23:42.310Z,5.30
2019-05-06T16:26:12.250Z,5.20
2019-05-06T16:28:38.966Z,6.10
2019-05-06T16:31:06.186Z,7.07
2019-05-06T16:33:33.395Z,6.07
2019-05-06T16:36:00.625Z,6.40
2019-05-06T16:38:27.837Z,6.27
2019-05-06T16:41:09.406Z,6.60
2019-05-06T16:43:24.318Z,7.17
2019-05-06T16:45:53.194Z,8.03
2019-05-06T16:48:22.537Z,8.73
2019-05-06T16:50:49.902Z,8.57
2019-05-06T16:53:17.146Z,8.87
2019-05-06T16:56:04.574Z,8.73
2019-05-06T16:58:49.787Z,7.97
2019-05-06T17:01:17.018Z,7.30
2019-05-06T17:03:45.864Z,8.07
2019-05-06T17:06:14.981Z,7.93
2019-05-06T17:08:42.545Z,7.17
2019-05-06T17:11:26.177Z,6.93
2019-05-06T17:13:38.811Z,7.37
2019-05-06T17:16:06.964Z,7.73
2019-05-06T17:18:34.183Z,7.93
2019-05-06T17:21:01.694Z,8.17
2019-05-06T17:23:32.400Z,8.27
2019-05-06T17:25:59.818Z,8.23
2019-05-06T17:28:44.878Z,7.70
2019-05-06T17:31:13.750Z,8.37
2019-05-06T17:33:42.966Z,7.50
2019-05-06T17:36:12.715Z,8.13
2019-05-06T17:38:44.890Z,7.50
2019-05-06T17:41:12.485Z,7.83
2019-05-06T17:43:41.096Z,7.73
2019-05-06T17:46:09.163Z,7.80
2019-05-06T17:48:54.519Z,7.80
2019-05-06T17:51:23.362Z,7.80
2019-05-06T17:53:52.470Z,7.97
2019-05-06T17:56:22.100Z,8.03
2019-05-06T17:58:48.982Z,7.83
2019-05-06T18:01:18.834Z,8.47
2019-05-06T18:03:46.279Z,9.20
2019-05-06T18:06:14.368Z,8.63
2019-05-06T18:08:43.302Z,8.73
2019-05-06T18:11:12.739Z,9.37
2019-05-06T18:13:39.644Z,10.33
2019-05-06T18:16:07.147Z,11.17
2019-05-06T18:18:34.396Z,11.00
2019-05-06T18:21:02.558Z,10.67
2019-05-06T18:23:29.957Z,10.73
2019-05-06T18:25:57.278Z,9.60
2019-05-06T18:28:24.504Z,8.63
2019-05-06T18:30:52.211Z,8.33
2019-05-06T18:33:19.486Z,8.23
2019-05-06T18:35:46.999Z,8.97
2019-05-06T18:38:14.258Z,7.70
2019-05-06T18:40:42.359Z,8.43
2019-05-06T18:43:09.775Z,7.83
2019-05-06T18:45:37.027Z,7.60
2019-05-06T18:48:04.486Z,7.20
2019-05-06T18:50:32.122Z,7.30
2019-05-06T18:52:59.431Z,7.50
2019-05-06T18:55:26.711Z,7.37
2019-05-06T18:57:53.941Z,7.63
2019-05-06T19:00:22.453Z,7.20
2019-05-06T19:02:52.144Z,7.57
2019-05-06T19:05:37.061Z,6.97
2019-05-06T19:08:06.095Z,7.53
2019-05-06T19:10:33.997Z,8.40
2019-05-06T19:13:02.057Z,7.63
2019-05-06T19:15:32.777Z,7.70
2019-05-06T19:18:02.144Z,7.73
2019-05-06T19:20:29.121Z,7.93
2019-05-06T19:22:56.622Z,8.50
2019-05-06T19:25:26.472Z,8.63
2019-05-06T19:27:53.218Z,8.33
2019-05-06T19:30:22.477Z,8.33
2019-05-06T19:32:49.585Z,7.73
2019-05-06T19:35:16.810Z,8.00
2019-05-06T19:37:44.326Z,7.73
2019-05-06T19:40:12.171Z,9.27
2019-05-06T19:42:48.925Z,8.70
2019-05-06T19:45:08.659Z,8.53
2019-05-06T19:47:35.863Z,8.50
2019-05-06T19:50:04.667Z,8.57
2019-05-06T19:52:32.611Z,8.47
2019-05-06T19:55:00.098Z,8.70
2019-05-06T19:57:27.779Z,8.10
2019-05-06T19:59:55.325Z,8.23
2019-05-06T20:02:25.579Z,7.97
2019-05-06T20:04:58.845Z,8.03
2019-05-06T20:07:30.633Z,8.47
2019-05-06T20:10:16.189Z,8.67
2019-05-06T20:12:58.352Z,8.37
2019-05-06T20:15:31.870Z,8.80
2019-05-06T20:17:59.077Z,8.40
2019-05-06T20:20:26.295Z,8.70
2019-05-06T20:22:53.831Z,9.00
2019-05-06T20:25:22.020Z,7.73
2019-05-06T20:27:49.436Z,8.57
2019-05-06T20:30:16.802Z,8.07
2019-05-06T20:32:44.039Z,7.70
2019-05-06T20:35:13.030Z,8.13
2019-05-06T20:37:42.464Z,7.80
2019-05-06T20:40:11.727Z,7.90
2019-05-06T20:42:38.511Z,8.57
2019-05-06T20:45:07.176Z,8.60
2019-05-06T20:47:34.391Z,8.33
2019-05-06T20:50:02.409Z,7.93
2019-05-06T20:52:30.629Z,8.00
2019-05-06T20:54:59.267Z,8.67
2019-05-06T20:57:26.482Z,8.20
2019-05-06T20:59:53.734Z,8.47
2019-05-06T21:02:25.509Z,8.70
2019-05-06T21:04:49.916Z,8.27
2019-05-06T21:07:17.132Z,9.90
2019-05-06T21:09:44.612Z,8.27
2019-05-06T21:12:11.847Z,9.27
2019-05-06T21:14:39.423Z,8.67
2019-05-06T21:17:06.680Z,9.17
2019-05-06T21:19:33.901Z,9.50
2019-05-06T21:22:02.336Z,9.00
2019-05-06T21:24:31.676Z,8.93
2019-05-06T21:26:58.683Z,9.03
2019-05-06T21:29:26.224Z,9.07
2019-05-06T21:31:53.787Z,9.07
2019-05-06T21:34:22.350Z,8.70
2019-05-06T21:36:49.825Z,9.10
2019-05-06T21:39:17.112Z,8.93
2019-05-06T21:41:44.620Z,9.30
2019-05-06T21:44:13.170Z,8.60
2019-05-06T21:46:42.713Z,8.77
2019-05-06T21:49:11.637Z,8.60
2019-05-06T21:51:39.259Z,8.17
2019-05-06T21:54:06.504Z,8.03
2019-05-06T21:56:33.733Z,9.00
2019-05-06T21:59:02.022Z,8.00
2019-05-06T22:01:30.104Z,8.13
2019-05-06T22:03:57.336Z,8.37
2019-05-06T22:06:24.566Z,8.33
2019-05-06T22:08:52.070Z,8.43
2019-05-06T22:11:19.287Z,9.43
2019-05-06T22:13:57.801Z,8.40
2019-05-06T22:16:15.434Z,9.00
2019-05-06T22:18:45.504Z,8.50
2019-05-06T22:21:13.605Z,9.33
2019-05-06T22:23:54.267Z,8.60
2019-05-06T22:26:23.133Z,9.03
2019-05-06T22:28:52.451Z,8.93
2019-05-06T22:31:24.319Z,9.00
2019-05-06T22:33:52.045Z,9.23
2019-05-06T22:36:19.284Z,9.53
2019-05-06T22:38:46.922Z,8.80
2019-05-06T22:41:14.150Z,9.33
2019-05-06T22:43:42.413Z,9.40
2019-05-06T22:46:09.655Z,9.40
2019-05-06T22:48:37.111Z,9.13
2019-05-06T22:51:04.603Z,9.07
2019-05-06T22:53:32.851Z,9.77
2019-05-06T22:56:02.710Z,9.37
2019-05-06T22:58:30.262Z,10.80
2019-05-06T23:00:57.571Z,10.53
2019-05-06T23:03:34.621Z,9.97
2019-05-06T23:06:02.555Z,10.60
2019-05-06T23:08:32.321Z,9.83
2019-05-06T23:10:58.834Z,10.63
2019-05-06T23:13:26.095Z,9.77
2019-05-06T23:15:53.303Z,10.03
2019-05-06T23:18:22.318Z,10.63
2019-05-06T23:20:49.484Z,10.47
2019-05-06T23:23:16.709Z,10.40
2019-05-06T23:25:45.583Z,10.40
2019-05-06T23:28:12.821Z,10.10
2019-05-06T23:30:40.095Z,9.97
2019-05-06T23:33:07.329Z,10.00
2019-05-06T23:35:34.803Z,10.03
2019-05-06T23:38:20.123Z,10.67
2019-05-06T23:41:05.362Z,10.10
2019-05-06T23:43:50.967Z,10.27
2019-05-06T23:46:36.351Z,10.90
2019-05-06T23:49:22.328Z,9.90
2019-05-06T23:52:07.949Z,11.30
2019-05-06T23:54:53.231Z,10.77
2019-05-06T23:57:19.929Z,10.50
2019-05-06T23:59:47.452Z,10.67
